sensor_id;sensor_type;location;lat;lon;timestamp;temperature;humidity
13998;DHT22;7074;51.508;7.018;2023-06-14T00:00:49;21.70;59.90
13998;DHT22;7074;51.508;7.018;2023-06-14T00:03:18;21.70;59.80
13998;DHT22;7074;51.508;7.018;2023-06-14T00:05:48;21.80;59.80
13998;DHT22;7074;51.508;7.018;2023-06-14T00:08:15;21.80;59.90
13998;DHT22;7074;51.508;7.018;2023-06-14T00:10:44;21.80;59.70
13998;DHT22;7074;51.508;7.018;2023-06-14T00:13:13;21.70;59.70
13998;DHT22;7074;51.508;7.018;2023-06-14T00:15:41;21.80;59.60
13998;DHT22;7074;51.508;7.018;2023-06-14T00:18:08;21.80;59.50
13998;DHT22;7074;51.508;7.018;2023-06-14T00:20:37;21.70;59.20
13998;DHT22;7074;51.508;7.018;2023-06-14T00:23:05;21.70;59.30
13998;DHT22;7074;51.508;7.018;2023-06-14T00:25:32;21.70;59.30
13998;DHT22;7074;51.508;7.018;2023-06-14T00:27:59;21.70;59.10
13998;DHT22;7074;51.508;7.018;2023-06-14T00:30:29;21.70;59.10
13998;DHT22;7074;51.508;7.018;2023-06-14T00:32:56;21.60;58.90
13998;DHT22;7074;51.508;7.018;2023-06-14T00:35:25;21.60;59.00
13998;DHT22;7074;51.508;7.018;2023-06-14T00:37:53;21.60;59.10
13998;DHT22;7074;51.508;7.018;2023-06-14T00:40:20;21.60;59.00
13998;DHT22;7074;51.508;7.018;2023-06-14T00:42:48;21.70;58.90
13998;DHT22;7074;51.508;7.018;2023-06-14T00:45:16;21.70;58.90
13998;DHT22;7074;51.508;7.018;2023-06-14T00:47:46;21.70;59.10
13998;DHT22;7074;51.508;7.018;2023-06-14T00:50:16;21.70;59.00
13998;DHT22;7074;51.508;7.018;2023-06-14T00:52:43;21.70;59.00
13998;DHT22;7074;51.508;7.018;2023-06-14T00:55:11;21.70;59.10
13998;DHT22;7074;51.508;7.018;2023-06-14T00:57:38;21.70;59.20
13998;DHT22;7074;51.508;7.018;2023-06-14T01:00:07;21.60;59.20
13998;DHT22;7074;51.508;7.018;2023-06-14T01:02:36;21.60;58.90
13998;DHT22;7074;51.508;7.018;2023-06-14T01:05:05;21.60;59.00
13998;DHT22;7074;51.508;7.018;2023-06-14T01:07:40;21.60;59.00
13998;DHT22;7074;51.508;7.018;2023-06-14T01:10:21;21.50;58.90
13998;DHT22;7074;51.508;7.018;2023-06-14T01:13:05;21.50;59.20
13998;DHT22;7074;51.508;7.018;2023-06-14T01:15:35;21.40;58.90
13998;DHT22;7074;51.508;7.018;2023-06-14T01:18:04;21.40;58.80
13998;DHT22;7074;51.508;7.018;2023-06-14T01:20:33;21.40;58.90
13998;DHT22;7074;51.508;7.018;2023-06-14T01:23:05;21.30;58.70
13998;DHT22;7074;51.508;7.018;2023-06-14T01:25:32;21.30;58.70
13998;DHT22;7074;51.508;7.018;2023-06-14T01:28:03;21.20;58.50
13998;DHT22;7074;51.508;7.018;2023-06-14T01:30:37;21.10;58.50
13998;DHT22;7074;51.508;7.018;2023-06-14T01:33:05;21.10;58.80
13998;DHT22;7074;51.508;7.018;2023-06-14T01:35:32;21.10;58.70
13998;DHT22;7074;51.508;7.018;2023-06-14T01:38:02;21.10;58.60
13998;DHT22;7074;51.508;7.018;2023-06-14T01:40:33;21.00;58.50
13998;DHT22;7074;51.508;7.018;2023-06-14T01:43:02;21.00;58.50
13998;DHT22;7074;51.508;7.018;2023-06-14T01:45:30;21.00;58.50
13998;DHT22;7074;51.508;7.018;2023-06-14T01:47:59;21.00;58.20
13998;DHT22;7074;51.508;7.018;2023-06-14T01:50:28;20.90;58.10
13998;DHT22;7074;51.508;7.018;2023-06-14T01:52:57;20.90;58.20
13998;DHT22;7074;51.508;7.018;2023-06-14T01:55:24;20.80;58.30
13998;DHT22;7074;51.508;7.018;2023-06-14T01:57:53;20.80;58.30
13998;DHT22;7074;51.508;7.018;2023-06-14T02:00:20;20.70;58.10
13998;DHT22;7074;51.508;7.018;2023-06-14T02:02:52;20.70;58.20
13998;DHT22;7074;51.508;7.018;2023-06-14T02:05:19;20.60;58.10
13998;DHT22;7074;51.508;7.018;2023-06-14T02:07:48;20.60;58.20
13998;DHT22;7074;51.508;7.018;2023-06-14T02:10:17;20.60;58.30
13998;DHT22;7074;51.508;7.018;2023-06-14T02:12:46;20.50;58.00
13998;DHT22;7074;51.508;7.018;2023-06-14T02:15:15;20.50;58.10
13998;DHT22;7074;51.508;7.018;2023-06-14T02:17:44;20.50;58.20
13998;DHT22;7074;51.508;7.018;2023-06-14T02:20:13;20.40;58.10
13998;DHT22;7074;51.508;7.018;2023-06-14T02:22:41;20.40;58.30
13998;DHT22;7074;51.508;7.018;2023-06-14T02:25:08;20.40;58.40
13998;DHT22;7074;51.508;7.018;2023-06-14T02:27:36;20.30;58.40
13998;DHT22;7074;51.508;7.018;2023-06-14T02:30:04;20.20;58.40
13998;DHT22;7074;51.508;7.018;2023-06-14T02:32:34;20.20;58.50
13998;DHT22;7074;51.508;7.018;2023-06-14T02:35:01;20.20;58.60
13998;DHT22;7074;51.508;7.018;2023-06-14T02:37:29;20.20;59.10
13998;DHT22;7074;51.508;7.018;2023-06-14T02:39:56;20.10;59.20
13998;DHT22;7074;51.508;7.018;2023-06-14T02:42:23;20.10;58.60
13998;DHT22;7074;51.508;7.018;2023-06-14T02:44:51;20.00;58.80
13998;DHT22;7074;51.508;7.018;2023-06-14T02:47:18;20.00;58.80
13998;DHT22;7074;51.508;7.018;2023-06-14T02:49:47;20.00;58.90
13998;DHT22;7074;51.508;7.018;2023-06-14T02:52:15;20.00;58.90
13998;DHT22;7074;51.508;7.018;2023-06-14T02:54:42;20.00;58.90
13998;DHT22;7074;51.508;7.018;2023-06-14T02:57:10;19.90;58.90
13998;DHT22;7074;51.508;7.018;2023-06-14T02:59:38;19.90;58.90
13998;DHT22;7074;51.508;7.018;2023-06-14T03:02:06;19.90;59.10
13998;DHT22;7074;51.508;7.018;2023-06-14T03:04:35;19.90;59.20
13998;DHT22;7074;51.508;7.018;2023-06-14T03:07:09;19.90;59.10
13998;DHT22;7074;51.508;7.018;2023-06-14T03:09:40;19.90;59.20
13998;DHT22;7074;51.508;7.018;2023-06-14T03:12:10;19.90;59.30
13998;DHT22;7074;51.508;7.018;2023-06-14T03:14:39;19.90;59.40
13998;DHT22;7074;51.508;7.018;2023-06-14T03:17:07;19.90;59.50
13998;DHT22;7074;51.508;7.018;2023-06-14T03:19:39;19.90;59.40
13998;DHT22;7074;51.508;7.018;2023-06-14T03:22:09;19.90;59.60
13998;DHT22;7074;51.508;7.018;2023-06-14T03:24:38;19.90;59.70
13998;DHT22;7074;51.508;7.018;2023-06-14T03:27:10;19.90;59.70
13998;DHT22;7074;51.508;7.018;2023-06-14T03:29:41;19.80;60.50
13998;DHT22;7074;51.508;7.018;2023-06-14T03:32:10;19.90;59.90
13998;DHT22;7074;51.508;7.018;2023-06-14T03:34:40;19.90;60.00
13998;DHT22;7074;51.508;7.018;2023-06-14T03:37:14;19.80;60.10
13998;DHT22;7074;51.508;7.018;2023-06-14T03:39:42;19.80;60.10
13998;DHT22;7074;51.508;7.018;2023-06-14T03:42:15;19.90;60.30
13998;DHT22;7074;51.508;7.018;2023-06-14T03:44:44;19.90;60.50
13998;DHT22;7074;51.508;7.018;2023-06-14T03:47:12;19.90;60.50
13998;DHT22;7074;51.508;7.018;2023-06-14T03:49:39;19.90;60.50
13998;DHT22;7074;51.508;7.018;2023-06-14T03:52:06;19.90;60.80
13998;DHT22;7074;51.508;7.018;2023-06-14T03:54:39;19.90;60.80
13998;DHT22;7074;51.508;7.018;2023-06-14T03:57:06;19.80;60.90
13998;DHT22;7074;51.508;7.018;2023-06-14T03:59:34;19.70;60.90
13998;DHT22;7074;51.508;7.018;2023-06-14T04:02:02;19.70;61.10
13998;DHT22;7074;51.508;7.018;2023-06-14T04:04:30;19.70;61.10
13998;DHT22;7074;51.508;7.018;2023-06-14T04:06:59;19.70;61.60
13998;DHT22;7074;51.508;7.018;2023-06-14T04:09:27;19.60;61.50
13998;DHT22;7074;51.508;7.018;2023-06-14T04:11:56;19.70;61.90
13998;DHT22;7074;51.508;7.018;2023-06-14T04:14:24;19.70;62.00
13998;DHT22;7074;51.508;7.018;2023-06-14T04:16:51;19.60;62.10
13998;DHT22;7074;51.508;7.018;2023-06-14T04:19:20;19.70;62.50
13998;DHT22;7074;51.508;7.018;2023-06-14T04:21:47;19.70;62.50
13998;DHT22;7074;51.508;7.018;2023-06-14T04:24:16;19.70;62.50
13998;DHT22;7074;51.508;7.018;2023-06-14T04:26:47;19.70;62.70
13998;DHT22;7074;51.508;7.018;2023-06-14T04:29:18;19.70;62.50
13998;DHT22;7074;51.508;7.018;2023-06-14T04:31:56;19.80;63.50
13998;DHT22;7074;51.508;7.018;2023-06-14T04:34:26;19.80;62.70
13998;DHT22;7074;51.508;7.018;2023-06-14T04:37:00;19.80;62.80
13998;DHT22;7074;51.508;7.018;2023-06-14T04:39:31;19.90;62.80
13998;DHT22;7074;51.508;7.018;2023-06-14T04:42:00;19.90;63.40
13998;DHT22;7074;51.508;7.018;2023-06-14T04:44:32;19.90;63.10
13998;DHT22;7074;51.508;7.018;2023-06-14T04:47:02;19.90;63.20
13998;DHT22;7074;51.508;7.018;2023-06-14T04:49:37;20.00;63.60
13998;DHT22;7074;51.508;7.018;2023-06-14T04:52:07;20.00;63.50
13998;DHT22;7074;51.508;7.018;2023-06-14T04:54:39;20.10;63.80
13998;DHT22;7074;51.508;7.018;2023-06-14T04:57:09;20.10;63.80
13998;DHT22;7074;51.508;7.018;2023-06-14T04:59:41;20.10;63.60
13998;DHT22;7074;51.508;7.018;2023-06-14T05:02:10;20.20;64.00
13998;DHT22;7074;51.508;7.018;2023-06-14T05:04:38;20.30;63.80
13998;DHT22;7074;51.508;7.018;2023-06-14T05:07:07;20.40;63.70
13998;DHT22;7074;51.508;7.018;2023-06-14T05:09:35;20.40;63.60
13998;DHT22;7074;51.508;7.018;2023-06-14T05:12:03;20.40;63.60
13998;DHT22;7074;51.508;7.018;2023-06-14T05:14:31;20.40;63.60
13998;DHT22;7074;51.508;7.018;2023-06-14T05:17:00;20.60;63.60
13998;DHT22;7074;51.508;7.018;2023-06-14T05:19:28;20.60;63.10
13998;DHT22;7074;51.508;7.018;2023-06-14T05:21:55;20.70;63.10
13998;DHT22;7074;51.508;7.018;2023-06-14T05:24:23;20.80;63.20
13998;DHT22;7074;51.508;7.018;2023-06-14T05:26:51;20.90;63.00
13998;DHT22;7074;51.508;7.018;2023-06-14T05:29:18;20.90;62.70
13998;DHT22;7074;51.508;7.018;2023-06-14T05:31:46;21.00;62.60
13998;DHT22;7074;51.508;7.018;2023-06-14T05:34:14;21.10;62.60
13998;DHT22;7074;51.508;7.018;2023-06-14T05:36:42;21.10;62.60
13998;DHT22;7074;51.508;7.018;2023-06-14T05:39:09;21.10;63.40
13998;DHT22;7074;51.508;7.018;2023-06-14T05:41:36;21.10;62.20
13998;DHT22;7074;51.508;7.018;2023-06-14T05:44:04;21.20;62.70
13998;DHT22;7074;51.508;7.018;2023-06-14T05:46:31;21.20;62.60
13998;DHT22;7074;51.508;7.018;2023-06-14T05:48:58;21.30;62.10
13998;DHT22;7074;51.508;7.018;2023-06-14T05:55:30;21.40;61.00
13998;DHT22;7074;51.508;7.018;2023-06-14T05:58:09;21.60;61.40
13998;DHT22;7074;51.508;7.018;2023-06-14T06:01:34;21.60;61.40
13998;DHT22;7074;51.508;7.018;2023-06-14T06:04:44;21.70;60.90
13998;DHT22;7074;51.508;7.018;2023-06-14T06:07:16;21.80;60.90
13998;DHT22;7074;51.508;7.018;2023-06-14T06:09:43;21.90;60.70
13998;DHT22;7074;51.508;7.018;2023-06-14T06:22:37;22.20;59.30
13998;DHT22;7074;51.508;7.018;2023-06-14T06:25:38;22.30;58.90
13998;DHT22;7074;51.508;7.018;2023-06-14T06:31:42;22.30;58.50
13998;DHT22;7074;51.508;7.018;2023-06-14T06:36:18;22.40;58.60
13998;DHT22;7074;51.508;7.018;2023-06-14T06:38:18;22.50;58.10
13998;DHT22;7074;51.508;7.018;2023-06-14T06:41:06;22.70;57.70
13998;DHT22;7074;51.508;7.018;2023-06-14T06:43:45;22.70;57.90
13998;DHT22;7074;51.508;7.018;2023-06-14T06:50:20;22.70;57.70
13998;DHT22;7074;51.508;7.018;2023-06-14T06:53:01;22.80;57.50
13998;DHT22;7074;51.508;7.018;2023-06-14T06:55:34;22.80;57.20
13998;DHT22;7074;51.508;7.018;2023-06-14T06:58:08;22.90;57.60
13998;DHT22;7074;51.508;7.018;2023-06-14T07:00:50;23.00;57.20
13998;DHT22;7074;51.508;7.018;2023-06-14T07:03:24;23.00;57.30
13998;DHT22;7074;51.508;7.018;2023-06-14T07:05:56;23.10;57.30
13998;DHT22;7074;51.508;7.018;2023-06-14T07:08:47;23.20;56.50
13998;DHT22;7074;51.508;7.018;2023-06-14T07:11:25;23.20;57.60
13998;DHT22;7074;51.508;7.018;2023-06-14T07:13:53;23.30;57.00
13998;DHT22;7074;51.508;7.018;2023-06-14T07:16:33;23.40;57.00
13998;DHT22;7074;51.508;7.018;2023-06-14T07:19:06;23.40;56.30
13998;DHT22;7074;51.508;7.018;2023-06-14T07:22:05;23.30;55.90
13998;DHT22;7074;51.508;7.018;2023-06-14T07:25:17;23.20;55.60
13998;DHT22;7074;51.508;7.018;2023-06-14T07:27:54;23.30;55.70
13998;DHT22;7074;51.508;7.018;2023-06-14T07:31:16;23.30;55.70
13998;DHT22;7074;51.508;7.018;2023-06-14T07:34:04;23.50;55.60
13998;DHT22;7074;51.508;7.018;2023-06-14T07:36:48;23.50;55.80
13998;DHT22;7074;51.508;7.018;2023-06-14T07:42:50;23.70;55.40
13998;DHT22;7074;51.508;7.018;2023-06-14T07:52:28;23.70;57.10
13998;DHT22;7074;51.508;7.018;2023-06-14T07:55:58;23.90;56.70
13998;DHT22;7074;51.508;7.018;2023-06-14T07:58:54;24.00;56.40
13998;DHT22;7074;51.508;7.018;2023-06-14T08:05:00;24.20;55.70
13998;DHT22;7074;51.508;7.018;2023-06-14T08:07:42;24.10;55.10
13998;DHT22;7074;51.508;7.018;2023-06-14T08:10:28;24.00;54.50
13998;DHT22;7074;51.508;7.018;2023-06-14T08:12:55;24.10;54.20
13998;DHT22;7074;51.508;7.018;2023-06-14T08:15:23;24.20;55.10
13998;DHT22;7074;51.508;7.018;2023-06-14T08:17:53;24.00;54.00
13998;DHT22;7074;51.508;7.018;2023-06-14T08:21:14;24.10;54.40
13998;DHT22;7074;51.508;7.018;2023-06-14T08:24:05;24.20;53.70
13998;DHT22;7074;51.508;7.018;2023-06-14T08:31:13;24.20;53.60
13998;DHT22;7074;51.508;7.018;2023-06-14T08:34:01;24.40;53.60
13998;DHT22;7074;51.508;7.018;2023-06-14T08:37:28;24.50;53.80
13998;DHT22;7074;51.508;7.018;2023-06-14T08:40:09;24.50;54.20
13998;DHT22;7074;51.508;7.018;2023-06-14T08:47:12;24.40;53.20
13998;DHT22;7074;51.508;7.018;2023-06-14T08:50:02;24.50;53.80
13998;DHT22;7074;51.508;7.018;2023-06-14T08:54:15;24.10;51.70
13998;DHT22;7074;51.508;7.018;2023-06-14T08:57:24;24.40;51.70
13998;DHT22;7074;51.508;7.018;2023-06-14T09:01:55;24.40;50.90
13998;DHT22;7074;51.508;7.018;2023-06-14T09:19:31;24.80;49.70
13998;DHT22;7074;51.508;7.018;2023-06-14T09:22:14;24.80;49.40
13998;DHT22;7074;51.508;7.018;2023-06-14T09:42:22;25.10;48.90
13998;DHT22;7074;51.508;7.018;2023-06-14T09:44:55;25.30;48.80
13998;DHT22;7074;51.508;7.018;2023-06-14T09:47:24;25.40;48.40
13998;DHT22;7074;51.508;7.018;2023-06-14T09:49:55;25.30;48.40
13998;DHT22;7074;51.508;7.018;2023-06-14T09:52:24;25.30;48.40
13998;DHT22;7074;51.508;7.018;2023-06-14T09:54:56;25.20;47.90
13998;DHT22;7074;51.508;7.018;2023-06-14T09:57:41;25.50;47.90
13998;DHT22;7074;51.508;7.018;2023-06-14T10:00:27;25.40;47.70
13998;DHT22;7074;51.508;7.018;2023-06-14T10:03:24;25.60;47.20
13998;DHT22;7074;51.508;7.018;2023-06-14T10:06:08;24.90;47.60
13998;DHT22;7074;51.508;7.018;2023-06-14T10:08:37;25.20;48.10
13998;DHT22;7074;51.508;7.018;2023-06-14T10:11:19;25.50;48.60
13998;DHT22;7074;51.508;7.018;2023-06-14T10:13:49;25.50;46.30
13998;DHT22;7074;51.508;7.018;2023-06-14T10:16:55;25.40;45.70
13998;DHT22;7074;51.508;7.018;2023-06-14T10:20:03;25.50;45.80
13998;DHT22;7074;51.508;7.018;2023-06-14T10:23:03;25.50;46.10
13998;DHT22;7074;51.508;7.018;2023-06-14T10:26:13;25.50;46.80
13998;DHT22;7074;51.508;7.018;2023-06-14T10:29:05;25.40;46.30
13998;DHT22;7074;51.508;7.018;2023-06-14T10:31:45;25.40;46.40
13998;DHT22;7074;51.508;7.018;2023-06-14T10:34:54;25.20;47.00
13998;DHT22;7074;51.508;7.018;2023-06-14T10:37:22;25.40;46.20
13998;DHT22;7074;51.508;7.018;2023-06-14T10:40:53;25.60;46.20
13998;DHT22;7074;51.508;7.018;2023-06-14T10:43:48;25.70;45.90
13998;DHT22;7074;51.508;7.018;2023-06-14T10:46:20;25.70;46.20
13998;DHT22;7074;51.508;7.018;2023-06-14T10:49:00;25.70;46.20
13998;DHT22;7074;51.508;7.018;2023-06-14T10:51:57;25.30;46.50
13998;DHT22;7074;51.508;7.018;2023-06-14T10:54:55;25.60;47.10
13998;DHT22;7074;51.508;7.018;2023-06-14T10:58:26;25.80;47.00
13998;DHT22;7074;51.508;7.018;2023-06-14T11:04:51;26.20;46.80
13998;DHT22;7074;51.508;7.018;2023-06-14T11:22:12;26.60;45.60
13998;DHT22;7074;51.508;7.018;2023-06-14T11:24:40;26.00;45.60
13998;DHT22;7074;51.508;7.018;2023-06-14T11:27:08;26.30;46.80
13998;DHT22;7074;51.508;7.018;2023-06-14T11:29:35;26.50;46.30
13998;DHT22;7074;51.508;7.018;2023-06-14T11:32:06;26.80;46.20
13998;DHT22;7074;51.508;7.018;2023-06-14T11:34:38;26.80;45.70
13998;DHT22;7074;51.508;7.018;2023-06-14T11:37:06;26.70;45.30
13998;DHT22;7074;51.508;7.018;2023-06-14T11:39:35;26.60;45.20
13998;DHT22;7074;51.508;7.018;2023-06-14T11:42:05;26.70;45.90
13998;DHT22;7074;51.508;7.018;2023-06-14T11:44:33;26.90;46.10
13998;DHT22;7074;51.508;7.018;2023-06-14T11:47:06;26.90;45.10
13998;DHT22;7074;51.508;7.018;2023-06-14T11:49:36;26.40;45.80
13998;DHT22;7074;51.508;7.018;2023-06-14T11:52:11;26.60;46.70
13998;DHT22;7074;51.508;7.018;2023-06-14T11:54:41;27.10;46.90
13998;DHT22;7074;51.508;7.018;2023-06-14T11:57:13;27.00;46.20
13998;DHT22;7074;51.508;7.018;2023-06-14T11:59:41;27.20;45.60
13998;DHT22;7074;51.508;7.018;2023-06-14T12:02:17;26.90;46.70
13998;DHT22;7074;51.508;7.018;2023-06-14T12:05:04;27.20;47.10
13998;DHT22;7074;51.508;7.018;2023-06-14T12:07:49;27.30;46.00
13998;DHT22;7074;51.508;7.018;2023-06-14T12:10:43;27.40;45.70
13998;DHT22;7074;51.508;7.018;2023-06-14T12:13:44;27.50;46.30
13998;DHT22;7074;51.508;7.018;2023-06-14T12:16:30;27.20;46.20
13998;DHT22;7074;51.508;7.018;2023-06-14T12:19:08;27.60;45.60
13998;DHT22;7074;51.508;7.018;2023-06-14T12:21:58;27.90;46.10
13998;DHT22;7074;51.508;7.018;2023-06-14T12:24:57;27.30;45.70
13998;DHT22;7074;51.508;7.018;2023-06-14T12:27:28;27.20;45.90
13998;DHT22;7074;51.508;7.018;2023-06-14T12:30:00;27.70;45.80
13998;DHT22;7074;51.508;7.018;2023-06-14T12:32:42;27.80;45.30
13998;DHT22;7074;51.508;7.018;2023-06-14T12:35:13;27.80;45.70
13998;DHT22;7074;51.508;7.018;2023-06-14T12:38:32;27.90;45.00
13998;DHT22;7074;51.508;7.018;2023-06-14T12:41:01;28.10;44.80
13998;DHT22;7074;51.508;7.018;2023-06-14T12:43:30;28.00;45.30
13998;DHT22;7074;51.508;7.018;2023-06-14T12:45:57;28.20;45.30
13998;DHT22;7074;51.508;7.018;2023-06-14T12:48:32;28.10;45.10
13998;DHT22;7074;51.508;7.018;2023-06-14T12:51:51;27.80;45.50
13998;DHT22;7074;51.508;7.018;2023-06-14T13:54:04;29.10;42.50
13998;DHT22;7074;51.508;7.018;2023-06-14T13:56:31;29.00;42.60
13998;DHT22;7074;51.508;7.018;2023-06-14T13:58:59;28.90;42.20
13998;DHT22;7074;51.508;7.018;2023-06-14T14:01:26;29.20;42.00
13998;DHT22;7074;51.508;7.018;2023-06-14T14:03:55;29.50;42.40
13998;DHT22;7074;51.508;7.018;2023-06-14T14:06:53;28.80;41.90
13998;DHT22;7074;51.508;7.018;2023-06-14T14:13:44;29.30;41.50
13998;DHT22;7074;51.508;7.018;2023-06-14T14:16:28;29.40;41.90
13998;DHT22;7074;51.508;7.018;2023-06-14T14:18:59;29.40;41.20
13998;DHT22;7074;51.508;7.018;2023-06-14T14:22:05;29.70;41.70
13998;DHT22;7074;51.508;7.018;2023-06-14T14:25:47;29.70;41.70
13998;DHT22;7074;51.508;7.018;2023-06-14T14:33:29;29.70;40.90
13998;DHT22;7074;51.508;7.018;2023-06-14T14:36:34;29.60;41.00
13998;DHT22;7074;51.508;7.018;2023-06-14T14:39:23;29.60;40.70
13998;DHT22;7074;51.508;7.018;2023-06-14T14:41:51;29.60;40.80
13998;DHT22;7074;51.508;7.018;2023-06-14T14:44:24;29.60;40.50
13998;DHT22;7074;51.508;7.018;2023-06-14T14:46:51;29.80;40.90
13998;DHT22;7074;51.508;7.018;2023-06-14T14:49:20;29.60;40.50
13998;DHT22;7074;51.508;7.018;2023-06-14T14:51:47;29.60;40.90
13998;DHT22;7074;51.508;7.018;2023-06-14T14:54:15;29.70;40.80
13998;DHT22;7074;51.508;7.018;2023-06-14T14:56:42;29.70;41.00
13998;DHT22;7074;51.508;7.018;2023-06-14T14:59:09;29.60;40.70
13998;DHT22;7074;51.508;7.018;2023-06-14T15:01:37;29.90;40.40
13998;DHT22;7074;51.508;7.018;2023-06-14T15:04:07;29.70;39.90
13998;DHT22;7074;51.508;7.018;2023-06-14T15:06:37;29.50;40.60
13998;DHT22;7074;51.508;7.018;2023-06-14T15:09:05;29.50;40.50
13998;DHT22;7074;51.508;7.018;2023-06-14T15:11:32;29.80;40.20
13998;DHT22;7074;51.508;7.018;2023-06-14T15:14:00;30.00;39.80
13998;DHT22;7074;51.508;7.018;2023-06-14T15:16:27;29.80;39.90
13998;DHT22;7074;51.508;7.018;2023-06-14T15:18:54;29.40;40.20
13998;DHT22;7074;51.508;7.018;2023-06-14T15:21:21;29.50;40.40
13998;DHT22;7074;51.508;7.018;2023-06-14T15:23:50;29.40;40.70
13998;DHT22;7074;51.508;7.018;2023-06-14T15:26:18;29.70;40.30
13998;DHT22;7074;51.508;7.018;2023-06-14T15:28:46;29.90;39.30
13998;DHT22;7074;51.508;7.018;2023-06-14T15:31:13;30.00;39.80
13998;DHT22;7074;51.508;7.018;2023-06-14T15:33:40;30.10;39.70
13998;DHT22;7074;51.508;7.018;2023-06-14T15:36:09;29.90;39.00
13998;DHT22;7074;51.508;7.018;2023-06-14T15:38:36;29.70;39.60
13998;DHT22;7074;51.508;7.018;2023-06-14T15:41:05;29.50;39.50
13998;DHT22;7074;51.508;7.018;2023-06-14T15:43:33;29.60;39.60
13998;DHT22;7074;51.508;7.018;2023-06-14T15:46:00;29.40;39.40
13998;DHT22;7074;51.508;7.018;2023-06-14T15:48:28;29.60;39.30
13998;DHT22;7074;51.508;7.018;2023-06-14T15:50:55;29.60;38.90
13998;DHT22;7074;51.508;7.018;2023-06-14T15:53:22;29.60;39.00
13998;DHT22;7074;51.508;7.018;2023-06-14T15:55:50;29.80;39.30
13998;DHT22;7074;51.508;7.018;2023-06-14T15:58:18;30.10;38.80
13998;DHT22;7074;51.508;7.018;2023-06-14T16:00:46;30.20;38.50
13998;DHT22;7074;51.508;7.018;2023-06-14T16:03:13;30.00;38.50
13998;DHT22;7074;51.508;7.018;2023-06-14T16:05:41;30.00;38.40
13998;DHT22;7074;51.508;7.018;2023-06-14T16:08:08;29.80;38.80
13998;DHT22;7074;51.508;7.018;2023-06-14T16:10:35;29.80;38.60
13998;DHT22;7074;51.508;7.018;2023-06-14T16:13:03;29.90;38.50
13998;DHT22;7074;51.508;7.018;2023-06-14T16:15:32;30.00;38.70
13998;DHT22;7074;51.508;7.018;2023-06-14T16:17:59;29.90;38.70
13998;DHT22;7074;51.508;7.018;2023-06-14T16:20:26;29.80;38.30
13998;DHT22;7074;51.508;7.018;2023-06-14T16:22:54;29.20;38.40
13998;DHT22;7074;51.508;7.018;2023-06-14T16:25:21;29.20;38.50
13998;DHT22;7074;51.508;7.018;2023-06-14T16:27:48;29.60;38.40
13998;DHT22;7074;51.508;7.018;2023-06-14T16:30:16;29.70;38.00
13998;DHT22;7074;51.508;7.018;2023-06-14T16:32:45;30.00;38.00
13998;DHT22;7074;51.508;7.018;2023-06-14T16:35:12;30.10;37.70
13998;DHT22;7074;51.508;7.018;2023-06-14T16:37:39;30.20;37.60
13998;DHT22;7074;51.508;7.018;2023-06-14T16:40:08;30.20;37.30
13998;DHT22;7074;51.508;7.018;2023-06-14T16:42:35;30.30;37.50
13998;DHT22;7074;51.508;7.018;2023-06-14T16:45:03;30.40;37.80
13998;DHT22;7074;51.508;7.018;2023-06-14T16:47:30;30.60;37.90
13998;DHT22;7074;51.508;7.018;2023-06-14T16:49:59;30.60;37.90
13998;DHT22;7074;51.508;7.018;2023-06-14T16:52:27;30.20;37.70
13998;DHT22;7074;51.508;7.018;2023-06-14T16:54:54;29.90;37.50
13998;DHT22;7074;51.508;7.018;2023-06-14T16:57:21;29.90;38.00
13998;DHT22;7074;51.508;7.018;2023-06-14T16:59:48;29.80;38.00
13998;DHT22;7074;51.508;7.018;2023-06-14T17:02:16;29.70;38.00
13998;DHT22;7074;51.508;7.018;2023-06-14T17:04:43;29.70;37.90
13998;DHT22;7074;51.508;7.018;2023-06-14T17:07:12;29.60;38.30
13998;DHT22;7074;51.508;7.018;2023-06-14T17:09:39;29.50;37.80
13998;DHT22;7074;51.508;7.018;2023-06-14T17:12:07;29.70;38.30
13998;DHT22;7074;51.508;7.018;2023-06-14T17:14:34;29.50;37.90
13998;DHT22;7074;51.508;7.018;2023-06-14T17:17:02;29.40;38.10
13998;DHT22;7074;51.508;7.018;2023-06-14T17:19:29;29.20;38.20
13998;DHT22;7074;51.508;7.018;2023-06-14T17:21:56;29.00;38.10
13998;DHT22;7074;51.508;7.018;2023-06-14T17:24:25;29.00;38.00
13998;DHT22;7074;51.508;7.018;2023-06-14T17:26:52;29.00;38.60
13998;DHT22;7074;51.508;7.018;2023-06-14T17:29:20;28.90;38.10
13998;DHT22;7074;51.508;7.018;2023-06-14T17:31:49;29.00;37.90
13998;DHT22;7074;51.508;7.018;2023-06-14T17:34:16;29.00;38.20
13998;DHT22;7074;51.508;7.018;2023-06-14T17:36:44;28.70;39.20
13998;DHT22;7074;51.508;7.018;2023-06-14T17:39:11;28.60;40.00
13998;DHT22;7074;51.508;7.018;2023-06-14T17:41:40;28.50;40.30
13998;DHT22;7074;51.508;7.018;2023-06-14T17:44:07;28.50;40.70
13998;DHT22;7074;51.508;7.018;2023-06-14T17:46:35;28.40;40.50
13998;DHT22;7074;51.508;7.018;2023-06-14T17:49:02;28.20;40.80
13998;DHT22;7074;51.508;7.018;2023-06-14T17:51:30;28.20;41.10
13998;DHT22;7074;51.508;7.018;2023-06-14T17:53:57;28.10;41.10
13998;DHT22;7074;51.508;7.018;2023-06-14T17:56:26;28.00;41.40
13998;DHT22;7074;51.508;7.018;2023-06-14T17:58:55;27.80;42.10
13998;DHT22;7074;51.508;7.018;2023-06-14T18:01:23;27.70;42.20
13998;DHT22;7074;51.508;7.018;2023-06-14T18:03:51;27.70;42.60
13998;DHT22;7074;51.508;7.018;2023-06-14T18:06:18;27.60;42.90
13998;DHT22;7074;51.508;7.018;2023-06-14T18:08:46;27.40;43.10
13998;DHT22;7074;51.508;7.018;2023-06-14T18:11:13;27.30;43.70
13998;DHT22;7074;51.508;7.018;2023-06-14T18:13:41;27.20;44.10
13998;DHT22;7074;51.508;7.018;2023-06-14T18:16:10;27.20;44.50
13998;DHT22;7074;51.508;7.018;2023-06-14T18:18:41;27.10;44.60
13998;DHT22;7074;51.508;7.018;2023-06-14T18:21:09;27.10;44.70
13998;DHT22;7074;51.508;7.018;2023-06-14T18:23:36;26.90;44.70
13998;DHT22;7074;51.508;7.018;2023-06-14T18:26:03;26.90;44.80
13998;DHT22;7074;51.508;7.018;2023-06-14T18:28:30;26.80;44.80
13998;DHT22;7074;51.508;7.018;2023-06-14T18:30:58;26.70;45.20
13998;DHT22;7074;51.508;7.018;2023-06-14T18:33:27;26.80;45.20
13998;DHT22;7074;51.508;7.018;2023-06-14T18:35:54;26.80;45.20
13998;DHT22;7074;51.508;7.018;2023-06-14T18:38:22;26.60;45.20
13998;DHT22;7074;51.508;7.018;2023-06-14T18:40:56;26.50;45.50
13998;DHT22;7074;51.508;7.018;2023-06-14T18:43:23;26.50;45.20
13998;DHT22;7074;51.508;7.018;2023-06-14T18:45:50;26.40;45.60
13998;DHT22;7074;51.508;7.018;2023-06-14T18:48:18;26.30;46.00
13998;DHT22;7074;51.508;7.018;2023-06-14T18:50:48;26.20;45.70
13998;DHT22;7074;51.508;7.018;2023-06-14T18:53:15;26.10;46.00
13998;DHT22;7074;51.508;7.018;2023-06-14T18:55:43;26.00;46.10
13998;DHT22;7074;51.508;7.018;2023-06-14T18:58:12;25.90;46.30
13998;DHT22;7074;51.508;7.018;2023-06-14T19:00:39;25.90;46.40
13998;DHT22;7074;51.508;7.018;2023-06-14T19:03:15;25.90;46.50
13998;DHT22;7074;51.508;7.018;2023-06-14T19:06:13;25.90;46.60
13998;DHT22;7074;51.508;7.018;2023-06-14T19:09:02;25.90;46.70
13998;DHT22;7074;51.508;7.018;2023-06-14T19:11:54;25.80;46.50
13998;DHT22;7074;51.508;7.018;2023-06-14T19:14:35;25.80;46.80
13998;DHT22;7074;51.508;7.018;2023-06-14T19:18:55;25.60;46.90